Time;durP1;ratioP1;P1;durP2;ratioP2;P2;SDS_P1;SDS_P2;PMS_P1;PMS_P2;Temp;Humidity;BMP_temperature;BMP_pressure;BME280_temperature;BME280_humidity;BME280_pressure;Samples;Min_cycle;Max_cycle;Signal;HPM_P1;HPM_P2
2021/12/23 00:00:07;;;;;;;;;;;;;;;;;;4406408;32;20000;-68
2021/12/23 00:02:33;;;;;;;;;;;;;;;;;;4393244;32;20022;-67
2021/12/23 00:05:00;;;;;;;;;;;;;;;;;;4405964;32;20023;-66
2021/12/23 00:07:26;;;;;;;;;;;;;;;;;;4405964;32;20061;-69
2021/12/23 00:12:28;;;;;;;;;;;;;;;;;;4393820;32;20497;-67
2021/12/23 00:14:55;;;;;;;;;;;;;;;;;;4419940;32;20000;-69
2021/12/23 00:17:38;;;;;;;;;;;;;;;;;;4393053;32;19985;-70
2021/12/23 00:25:16;;;;;;;;;;;;;;;;;;4407847;32;20376;-68
2021/12/23 00:27:43;;;;;;;;;;;;;;;;;;4405386;32;20509;-68
2021/12/23 00:30:10;;;;;;;;;;;;;;;;;;4419440;32;20430;-67
2021/12/23 00:32:36;;;;;;;;;;;;;;;;;;4392576;32;20436;-67
2021/12/23 00:35:04;;;;;;;;;;;;;;;;;;4392823;32;20052;-67
2021/12/23 00:37:37;;;;;;;;;;;;;;;;;;4405327;32;19969;-68
2021/12/23 00:40:04;;;;;;;;;;;;;;;;;;4419656;32;19981;-68
2021/12/23 00:42:32;;;;;;;;;;;;;;;;;;4405262;32;19997;-68
2021/12/23 00:44:58;;;;;;;;;;;;;;;;;;4392809;32;19981;-68
2021/12/23 00:47:25;;;;;;;;;;;;;;;;;;4405630;32;20003;-69
2021/12/23 00:49:51;;;;;;;;;;;;;;;;;;4405027;32;20049;-69
2021/12/23 00:52:24;;;;;;;;;;;;;;;;;;4419790;32;19969;-68
2021/12/23 00:54:51;;;;;;;;;;;;;;;;;;4419576;32;19969;-69
2021/12/23 00:57:24;;;;;;;;;;;;;;;;;;4393044;32;19996;-69
2021/12/23 00:59:51;;;;;;;;;;;;;;;;;;4420506;32;20471;-68
2021/12/23 01:02:18;;;;;;;;;;;;;;;;;;4404933;32;20070;-68
2021/12/23 01:04:44;;;;;;;;;;;;;;;;;;4405012;32;19984;-68
2021/12/23 01:07:11;;;;;;;;;;;;;;;;;;4416604;32;20345;-68
2021/12/23 01:09:37;;;;;;;;;;;;;;;;;;4382607;32;20010;-66
2021/12/23 01:12:04;;;;;;;;;;;;;;;;;;4395428;32;20030;-69
2021/12/23 01:14:41;;;;;;;;;;;;;;;;;;4394918;32;20045;-68
2021/12/23 01:17:23;;;;;;;;;;;;;;;;;;4408410;32;19996;-67
2021/12/23 01:19:52;;;;;;;;;;;;;;;;;;4383673;32;20053;-69
2021/12/23 01:22:19;;;;;;;;;;;;;;;;;;4395058;32;20061;-69
2021/12/23 01:24:46;;;;;;;;;;;;;;;;;;4382462;32;20054;-68
2021/12/23 01:27:13;;;;;;;;;;;;;;;;;;4394589;32;19992;-67
2021/12/23 01:29:39;;;;;;;;;;;;;;;;;;4394559;32;20031;-68
2021/12/23 01:32:07;;;;;;;;;;;;;;;;;;4408757;32;19988;-69
2021/12/23 01:37:13;;;;;;;;;;;;;;;;;;3857562;37;20372;-69
2021/12/23 01:39:39;;;;;;;;;;;;;;;;;;4393185;32;19981;-68
2021/12/23 01:42:06;;;;;;;;;;;;;;;;;;4405753;32;20044;-69
2021/12/23 01:44:32;;;;;;;;;;;;;;;;;;4405861;32;20004;-68
2021/12/23 01:46:59;;;;;;;;;;;;;;;;;;4393478;32;19980;-70
2021/12/23 01:49:25;;;;;;;;;;;;;;;;;;4406532;32;20049;-68
2021/12/23 01:51:52;;;;;;;;;;;;;;;;;;4405817;32;20363;-68
2021/12/23 01:54:18;;;;;;;;;;;;;;;;;;4393478;32;19981;-69
2021/12/23 01:56:45;;;;;;;;;;;;;;;;;;4405584;32;20004;-68
2021/12/23 01:59:11;;;;;;;;;;;;;;;;;;4405927;32;19989;-68
2021/12/23 02:01:41;;;;;;;;;;;;;;;;;;4419829;32;19994;-68
2021/12/23 02:04:08;;;;;;;;;;;;;;;;;;4406263;32;20021;-69
2021/12/23 02:06:34;;;;;;;;;;;;;;;;;;4405609;32;19996;-68
2021/12/23 02:09:00;;;;;;;;;;;;;;;;;;4392698;32;20388;-68
2021/12/23 02:11:27;;;;;;;;;;;;;;;;;;4405609;32;20462;-68
2021/12/23 02:13:53;;;;;;;;;;;;;;;;;;4405541;32;19982;-67
2021/12/23 02:16:20;;;;;;;;;;;;;;;;;;4392739;32;19981;-69
2021/12/23 02:18:46;;;;;;;;;;;;;;;;;;4403039;32;19996;-69
2021/12/23 02:21:13;;;;;;;;;;;;;;;;;;4390205;32;19985;-67
2021/12/23 02:23:41;;;;;;;;;;;;;;;;;;4390153;32;20054;-68
2021/12/23 02:26:07;;;;;;;;;;;;;;;;;;4390675;32;19993;-68
2021/12/23 02:28:34;;;;;;;;;;;;;;;;;;4403478;32;20000;-68
2021/12/23 02:31:00;;;;;;;;;;;;;;;;;;4390815;32;19989;-67
2021/12/23 02:33:27;;;;;;;;;;;;;;;;;;4406435;32;19984;-71
2021/12/23 02:35:55;;;;;;;;;;;;;;;;;;4377186;32;19984;-68
2021/12/23 02:38:21;;;;;;;;;;;;;;;;;;4402589;32;19992;-67
2021/12/23 02:40:47;;;;;;;;;;;;;;;;;;4402802;32;19995;-67
2021/12/23 02:43:22;;;;;;;;;;;;;;;;;;4377330;32;20053;-66
2021/12/23 02:45:50;;;;;;;;;;;;;;;;;;4402833;32;20058;-68
2021/12/23 02:48:26;;;;;;;;;;;;;;;;;;4395378;32;20013;-68
2021/12/23 02:50:53;;;;;;;;;;;;;;;;;;4367418;32;19999;-67
2021/12/23 02:53:20;;;;;;;;;;;;;;;;;;4392963;32;20078;-68
2021/12/23 02:55:46;;;;;;;;;;;;;;;;;;4394063;32;19996;-67
2021/12/23 02:58:13;;;;;;;;;;;;;;;;;;4392401;32;19985;-68
2021/12/23 03:00:40;;;;;;;;;;;;;;;;;;4395938;32;19988;-67
2021/12/23 03:03:06;;;;;;;;;;;;;;;;;;4388986;32;20001;-69
2021/12/23 03:05:33;;;;;;;;;;;;;;;;;;4394339;32;20406;-68
2021/12/23 03:08:00;;;;;;;;;;;;;;;;;;4392005;32;20446;-68
2021/12/23 03:10:26;;;;;;;;;;;;;;;;;;4392292;32;19977;-69
2021/12/23 03:12:53;;;;;;;;;;;;;;;;;;4379505;32;20371;-68
2021/12/23 03:15:20;;;;;;;;;;;;;;;;;;4392195;32;20429;-69
2021/12/23 03:17:46;;;;;;;;;;;;;;;;;;4391662;32;20019;-69
2021/12/23 03:20:13;;;;;;;;;;;;;;;;;;4393887;32;20113;-68
2021/12/23 03:22:39;;;;;;;;;;;;;;;;;;4380096;32;20001;-69
2021/12/23 03:25:06;;;;;;;;;;;;;;;;;;4393334;32;19976;-67
2021/12/23 03:27:32;;;;;;;;;;;;;;;;;;4391972;32;19989;-68
2021/12/23 03:29:59;;;;;;;;;;;;;;;;;;4379124;32;20396;-68
2021/12/23 03:32:25;;;;;;;;;;;;;;;;;;4393212;32;20364;-69
2021/12/23 03:34:52;;;;;;;;;;;;;;;;;;4393130;32;19986;-69
2021/12/23 03:37:18;;;;;;;;;;;;;;;;;;4379580;32;19993;-68
2021/12/23 03:39:47;;;;;;;;;;;;;;;;;;4391954;32;19992;-68
2021/12/23 03:42:13;;;;;;;;;;;;;;;;;;4392520;32;19981;-69
2021/12/23 03:44:40;;;;;;;;;;;;;;;;;;4395055;32;19976;-68
2021/12/23 03:47:06;;;;;;;;;;;;;;;;;;4395038;32;19982;-69
2021/12/23 03:49:33;;;;;;;;;;;;;;;;;;4392435;32;19996;-69
2021/12/23 03:51:59;;;;;;;;;;;;;;;;;;4392190;32;19981;-68
2021/12/23 03:54:26;;;;;;;;;;;;;;;;;;4393371;32;20409;-67
2021/12/23 03:56:52;;;;;;;;;;;;;;;;;;4391406;32;19989;-67
2021/12/23 03:59:19;;;;;;;;;;;;;;;;;;4390567;32;19977;-67
2021/12/23 04:01:45;;;;;;;;;;;;;;;;;;4391342;32;19985;-68
2021/12/23 04:04:12;;;;;;;;;;;;;;;;;;4391387;32;20062;-67
2021/12/23 04:06:38;;;;;;;;;;;;;;;;;;4379094;32;19973;-68
2021/12/23 04:09:05;;;;;;;;;;;;;;;;;;4395201;32;20413;-69
2021/12/23 04:11:31;;;;;;;;;;;;;;;;;;4391381;32;19989;-68
2021/12/23 04:13:58;;;;;;;;;;;;;;;;;;4391270;32;20086;-69
2021/12/23 04:16:24;;;;;;;;;;;;;;;;;;4378546;32;20393;-67
2021/12/23 04:18:52;;;;;;;;;;;;;;;;;;4391375;32;20008;-68
2021/12/23 04:21:18;;;;;;;;;;;;;;;;;;4391373;32;19977;-69
2021/12/23 04:23:45;;;;;;;;;;;;;;;;;;4391149;32;19996;-68
2021/12/23 04:26:12;;;;;;;;;;;;;;;;;;4378126;32;20371;-67
2021/12/23 04:28:46;;;;;;;;;;;;;;;;;;4391161;32;19977;-69
2021/12/23 04:31:13;;;;;;;;;;;;;;;;;;4390878;32;20415;-68
2021/12/23 04:33:39;;;;;;;;;;;;;;;;;;4378460;32;19978;-67
2021/12/23 04:36:07;;;;;;;;;;;;;;;;;;4390600;32;19981;-68
2021/12/23 04:38:35;;;;;;;;;;;;;;;;;;4391161;32;19977;-66
2021/12/23 04:41:01;;;;;;;;;;;;;;;;;;4390708;32;20428;-69
2021/12/23 04:43:28;;;;;;;;;;;;;;;;;;4390682;32;20086;-69
2021/12/23 04:45:54;;;;;;;;;;;;;;;;;;4393557;32;19978;-69
2021/12/23 04:48:21;;;;;;;;;;;;;;;;;;4391714;32;19974;-68
2021/12/23 04:50:47;;;;;;;;;;;;;;;;;;4390498;32;20057;-67
2021/12/23 04:53:14;;;;;;;;;;;;;;;;;;4378035;32;20412;-68
2021/12/23 04:55:42;;;;;;;;;;;;;;;;;;4391708;32;20028;-69
2021/12/23 04:58:08;;;;;;;;;;;;;;;;;;4377980;32;20058;-68
2021/12/23 05:00:35;;;;;;;;;;;;;;;;;;4390696;32;19973;-69
2021/12/23 05:03:01;;;;;;;;;;;;;;;;;;4392178;32;19989;-67
2021/12/23 05:05:28;;;;;;;;;;;;;;;;;;4391969;32;19980;-67
2021/12/23 05:07:56;;;;;;;;;;;;;;;;;;4377753;32;19989;-67
2021/12/23 05:10:25;;;;;;;;;;;;;;;;;;4391436;32;20349;-66
2021/12/23 05:12:59;;;;;;;;;;;;;;;;;;4391628;32;20436;-69
2021/12/23 05:15:25;;;;;;;;;;;;;;;;;;4390289;32;19970;-68
2021/12/23 05:17:52;;;;;;;;;;;;;;;;;;4391703;32;20007;-69
2021/12/23 05:20:18;;;;;;;;;;;;;;;;;;4391626;32;20000;-69
2021/12/23 05:22:45;;;;;;;;;;;;;;;;;;4389874;32;19970;-68
2021/12/23 05:25:11;;;;;;;;;;;;;;;;;;4391813;32;20395;-67
2021/12/23 05:27:38;;;;;;;;;;;;;;;;;;4365246;32;19974;-68
2021/12/23 05:30:06;;;;;;;;;;;;;;;;;;4378142;32;20364;-67
2021/12/23 05:32:32;;;;;;;;;;;;;;;;;;4390407;32;19984;-68
2021/12/23 05:34:59;;;;;;;;;;;;;;;;;;4389665;32;20387;-68
2021/12/23 05:37:25;;;;;;;;;;;;;;;;;;4389803;32;20393;-69
2021/12/23 05:39:52;;;;;;;;;;;;;;;;;;4391513;32;19981;-67
2021/12/23 05:42:18;;;;;;;;;;;;;;;;;;4380857;32;19993;-69
2021/12/23 05:44:45;;;;;;;;;;;;;;;;;;4392879;32;20426;-69
2021/12/23 05:47:11;;;;;;;;;;;;;;;;;;4390116;32;20396;-68
2021/12/23 05:49:38;;;;;;;;;;;;;;;;;;4389995;32;19988;-69
2021/12/23 05:52:04;;;;;;;;;;;;;;;;;;4377710;32;19986;-68
2021/12/23 05:54:31;;;;;;;;;;;;;;;;;;4377522;32;20150;-68
2021/12/23 05:57:01;;;;;;;;;;;;;;;;;;4377209;32;19973;-67
2021/12/23 05:59:29;;;;;;;;;;;;;;;;;;4390873;32;19988;-68
2021/12/23 06:01:55;;;;;;;;;;;;;;;;;;4389868;32;20106;-67
2021/12/23 06:04:22;;;;;;;;;;;;;;;;;;4377416;32;19978;-68
2021/12/23 06:06:48;;;;;;;;;;;;;;;;;;4377563;32;19978;-69
2021/12/23 06:09:15;;;;;;;;;;;;;;;;;;4389731;32;19988;-69
2021/12/23 06:11:41;;;;;;;;;;;;;;;;;;4391521;32;19982;-68
2021/12/23 06:14:08;;;;;;;;;;;;;;;;;;4389858;32;19992;-67
2021/12/23 06:16:34;;;;;;;;;;;;;;;;;;4377169;32;20372;-69
2021/12/23 06:19:01;;;;;;;;;;;;;;;;;;4389847;32;19974;-68
2021/12/23 06:21:30;;;;;;;;;;;;;;;;;;4391581;32;19985;-67
2021/12/23 06:23:57;;;;;;;;;;;;;;;;;;4392822;32;19997;-68
2021/12/23 06:26:23;;;;;;;;;;;;;;;;;;4380414;32;20065;-68
2021/12/23 06:28:50;;;;;;;;;;;;;;;;;;4384094;32;20065;-68
2021/12/23 06:31:16;;;;;;;;;;;;;;;;;;4386551;32;19989;-68
2021/12/23 06:33:43;;;;;;;;;;;;;;;;;;4393936;32;19981;-68
2021/12/23 06:36:09;;;;;;;;;;;;;;;;;;4379339;32;20364;-68
2021/12/23 06:38:36;;;;;;;;;;;;;;;;;;4379758;32;19976;-68
2021/12/23 06:41:02;;;;;;;;;;;;;;;;;;4379680;32;20345;-68
2021/12/23 06:43:29;;;;;;;;;;;;;;;;;;4392111;32;19974;-68
2021/12/23 06:45:56;;;;;;;;;;;;;;;;;;4391754;32;19980;-68
2021/12/23 06:48:23;;;;;;;;;;;;;;;;;;4379356;32;20008;-68
2021/12/23 06:50:53;;;;;;;;;;;;;;;;;;4393262;32;19981;-68
2021/12/23 06:53:20;;;;;;;;;;;;;;;;;;4382190;32;19974;-67
2021/12/23 06:55:47;;;;;;;;;;;;;;;;;;4361319;32;20131;-68
2021/12/23 06:58:14;;;;;;;;;;;;;;;;;;4381308;32;19997;-69
2021/12/23 07:00:40;;;;;;;;;;;;;;;;;;4364163;32;19967;-68
2021/12/23 07:03:07;;;;;;;;;;;;;;;;;;4378589;32;19978;-67
2021/12/23 07:08:03;;;;;;;;;;;;;;;;;;3857629;37;19954;-68
2021/12/23 07:10:30;;;;;;;;;;;;;;;;;;4407474;32;20033;-68
2021/12/23 07:12:56;;;;;;;;;;;;;;;;;;4393531;32;19985;-68
2021/12/23 07:15:24;;;;;;;;;;;;;;;;;;4392681;32;19976;-66
2021/12/23 07:17:51;;;;;;;;;;;;;;;;;;4404430;32;19980;-68
2021/12/23 07:20:18;;;;;;;;;;;;;;;;;;4403500;32;19993;-67
2021/12/23 07:22:44;;;;;;;;;;;;;;;;;;4402874;32;19990;-68
2021/12/23 07:25:12;;;;;;;;;;;;;;;;;;4402837;32;20400;-68
2021/12/23 07:27:40;;;;;;;;;;;;;;;;;;4402926;32;19977;-68
2021/12/23 07:30:06;;;;;;;;;;;;;;;;;;4390672;32;20384;-69
2021/12/23 07:32:33;;;;;;;;;;;;;;;;;;4404209;32;19989;-68
2021/12/23 07:34:59;;;;;;;;;;;;;;;;;;4404238;32;19988;-68
2021/12/23 07:37:26;;;;;;;;;;;;;;;;;;4378098;32;19973;-68
2021/12/23 07:39:54;;;;;;;;;;;;;;;;;;4404086;32;20061;-67
2021/12/23 07:42:21;;;;;;;;;;;;;;;;;;4401299;32;19982;-69
2021/12/23 07:44:48;;;;;;;;;;;;;;;;;;4390152;32;19969;-68
2021/12/23 07:47:14;;;;;;;;;;;;;;;;;;4404057;32;19962;-68
2021/12/23 07:49:44;;;;;;;;;;;;;;;;;;4403601;32;20062;-69
2021/12/23 07:52:11;;;;;;;;;;;;;;;;;;4390488;32;20487;-68
2021/12/23 07:54:37;;;;;;;;;;;;;;;;;;4402722;32;19985;-66
2021/12/23 07:57:04;;;;;;;;;;;;;;;;;;4398198;32;20057;-70
2021/12/23 07:59:31;;;;;;;;;;;;;;;;;;4403298;32;20020;-69
2021/12/23 08:01:57;;;;;;;;;;;;;;;;;;4396883;32;20404;-67
2021/12/23 08:04:24;;;;;;;;;;;;;;;;;;4393907;32;20095;-68
2021/12/23 08:06:57;;;;;;;;;;;;;;;;;;4384563;32;20077;-69
2021/12/23 08:09:24;;;;;;;;;;;;;;;;;;4388059;32;20387;-69
2021/12/23 08:11:51;;;;;;;;;;;;;;;;;;4376776;32;19989;-71
2021/12/23 08:14:17;;;;;;;;;;;;;;;;;;4408751;32;19990;-71
2021/12/23 08:16:44;;;;;;;;;;;;;;;;;;4391632;32;19992;-70
2021/12/23 08:21:50;;;;;;;;;;;;;;;;;;3825702;37;19954;-71
2021/12/23 08:24:16;;;;;;;;;;;;;;;;;;4386731;32;20434;-67
2021/12/23 08:26:50;;;;;;;;;;;;;;;;;;4374265;32;19966;-66
2021/12/23 08:29:18;;;;;;;;;;;;;;;;;;4373673;32;20049;-66
2021/12/23 08:31:46;;;;;;;;;;;;;;;;;;4400295;32;20443;-68
2021/12/23 08:34:13;;;;;;;;;;;;;;;;;;4390192;32;19997;-68
2021/12/23 08:36:40;;;;;;;;;;;;;;;;;;4400642;32;19969;-70
2021/12/23 08:39:06;;;;;;;;;;;;;;;;;;4385013;32;19969;-70
2021/12/23 08:41:32;;;;;;;;;;;;;;;;;;4401792;32;20441;-67
2021/12/23 08:43:59;;;;;;;;;;;;;;;;;;4385577;32;19989;-67
2021/12/23 08:46:25;;;;;;;;;;;;;;;;;;4373225;32;19984;-67
2021/12/23 08:48:52;;;;;;;;;;;;;;;;;;4380907;32;19978;-68
2021/12/23 08:51:18;;;;;;;;;;;;;;;;;;4389427;32;20336;-69
2021/12/23 08:53:45;;;;;;;;;;;;;;;;;;4397382;32;20058;-69
2021/12/23 08:56:12;;;;;;;;;;;;;;;;;;4374937;32;20372;-69
2021/12/23 08:58:39;;;;;;;;;;;;;;;;;;4374441;32;20032;-68
2021/12/23 09:01:06;;;;;;;;;;;;;;;;;;4376823;32;20000;-67
2021/12/23 09:03:33;;;;;;;;;;;;;;;;;;4385295;32;19986;-67
2021/12/23 09:06:00;;;;;;;;;;;;;;;;;;4391820;32;19981;-70
2021/12/23 09:08:26;;;;;;;;;;;;;;;;;;4386493;32;19980;-70
2021/12/23 09:10:53;;;;;;;;;;;;;;;;;;4389020;32;19985;-70
2021/12/23 09:13:20;;;;;;;;;;;;;;;;;;4376879;32;19969;-68
2021/12/23 09:15:46;;;;;;;;;;;;;;;;;;4386112;32;19978;-70
2021/12/23 09:18:13;;;;;;;;;;;;;;;;;;4380780;32;19994;-72
2021/12/23 09:20:39;;;;;;;;;;;;;;;;;;4366476;32;20700;-69
2021/12/23 09:23:09;;;;;;;;;;;;;;;;;;4365879;32;22530;-73
2021/12/23 09:25:36;;;;;;;;;;;;;;;;;;4380848;32;20021;-69
2021/12/23 09:28:18;;;;;;;;;;;;;;;;;;4383226;32;19974;-69
2021/12/23 09:33:30;;;;;;;;;;;;;;;;;;4373709;32;20044;-66
2021/12/23 09:35:56;;;;;;;;;;;;;;;;;;4360629;32;19978;-67
2021/12/23 09:38:29;;;;;;;;;;;;;;;;;;4358000;32;19981;-66
2021/12/23 09:41:04;;;;;;;;;;;;;;;;;;4356369;32;19978;-65
2021/12/23 09:43:31;;;;;;;;;;;;;;;;;;4375360;32;20001;-64
2021/12/23 09:45:58;;;;;;;;;;;;;;;;;;4386473;32;19990;-69
2021/12/23 09:48:26;;;;;;;;;;;;;;;;;;4381530;32;19986;-69
2021/12/23 09:50:53;;;;;;;;;;;;;;;;;;4363635;32;19984;-67
2021/12/23 09:53:20;;;;;;;;;;;;;;;;;;4364465;32;19970;-65
2021/12/23 09:55:46;;;;;;;;;;;;;;;;;;4365565;32;19970;-65
2021/12/23 09:58:13;;;;;;;;;;;;;;;;;;4380592;32;19981;-65
2021/12/23 10:00:42;;;;;;;;;;;;;;;;;;4378595;32;20396;-65
2021/12/23 10:03:09;;;;;;;;;;;;;;;;;;4376758;32;20065;-66
2021/12/23 10:05:35;;;;;;;;;;;;;;;;;;4377309;32;19989;-64
2021/12/23 10:08:04;;;;;;;;;;;;;;;;;;4376655;32;20005;-65
2021/12/23 10:38:20;;;;;;;;;;;;;;;;;;4376772;32;19966;-66
2021/12/23 10:40:51;;;;;;;;;;;;;;;;;;4363688;32;19986;-66
2021/12/23 10:43:28;;;;;;;;;;;;;;;;;;4363095;32;19969;-66
2021/12/23 10:45:57;;;;;;;;;;;;;;;;;;4363577;32;20043;-64
2021/12/23 10:48:25;;;;;;;;;;;;;;;;;;4363894;32;20055;-66
2021/12/23 10:50:59;;;;;;;;;;;;;;;;;;4364340;32;20012;-65
2021/12/23 10:59:02;;;;;;;;;;;;;;;;;;4376714;32;20349;-64
2021/12/23 11:01:29;;;;;;;;;;;;;;;;;;4377389;32;19993;-64
2021/12/23 11:04:47;;;;;;;;;;;;;;;;;;3857441;37;19966;-66
2021/12/23 11:07:23;;;;;;;;;;;;;;;;;;4382138;32;19974;-66
2021/12/23 11:09:59;;;;;;;;;;;;;;;;;;4394023;32;19988;-64
2021/12/23 11:37:51;;;;;;;;;;;;;;;;;;4407729;32;20069;-68
2021/12/23 11:45:29;;;;;;;;;;;;;;;;;;4392611;32;20356;-67
2021/12/23 11:47:57;;;;;;;;;;;;;;;;;;4419686;32;20061;-66
2021/12/23 11:52:56;;;;;;;;;;;;;;;;;;3820322;37;19957;-69
2021/12/23 11:55:22;;;;;;;;;;;;;;;;;;4361418;32;19985;-68
2021/12/23 11:57:50;;;;;;;;;;;;;;;;;;4379282;32;19977;-68
2021/12/23 12:00:29;;;;;;;;;;;;;;;;;;4388022;32;19974;-68
2021/12/23 12:02:59;;;;;;;;;;;;;;;;;;4380992;32;19985;-70
2021/12/23 12:05:26;;;;;;;;;;;;;;;;;;4363421;32;19970;-64
2021/12/23 12:08:06;;;;;;;;;;;;;;;;;;4386004;32;20079;-63
2021/12/23 12:10:33;;;;;;;;;;;;;;;;;;4364166;32;20333;-65
2021/12/23 12:13:04;;;;;;;;;;;;;;;;;;4374681;32;19992;-64
2021/12/23 12:15:34;;;;;;;;;;;;;;;;;;4361969;32;20337;-63
2021/12/23 12:18:07;;;;;;;;;;;;;;;;;;4387820;32;20038;-64
2021/12/23 12:20:36;;;;;;;;;;;;;;;;;;4374322;32;19998;-63
2021/12/23 12:23:04;;;;;;;;;;;;;;;;;;4361670;32;19976;-64
2021/12/23 12:25:30;;;;;;;;;;;;;;;;;;4376982;32;20051;-64
2021/12/23 12:27:56;;;;;;;;;;;;;;;;;;4397292;32;19997;-64
2021/12/23 12:30:40;;;;;;;;;;;;;;;;;;4385853;32;20053;-64
2021/12/23 12:33:12;;;;;;;;;;;;;;;;;;4364465;32;20064;-63
2021/12/23 12:35:39;;;;;;;;;;;;;;;;;;4381137;32;20061;-64
2021/12/23 12:38:18;;;;;;;;;;;;;;;;;;4369849;32;20470;-63
2021/12/23 12:40:55;;;;;;;;;;;;;;;;;;4372495;32;19970;-66
2021/12/23 12:43:48;;;;;;;;;;;;;;;;;;4389103;32;19988;-63
2021/12/23 12:46:39;;;;;;;;;;;;;;;;;;4388720;32;20005;-65
2021/12/23 12:49:22;;;;;;;;;;;;;;;;;;4380211;32;20364;-66
2021/12/23 12:51:49;;;;;;;;;;;;;;;;;;4382077;32;20118;-65
2021/12/23 12:54:18;;;;;;;;;;;;;;;;;;4376750;32;19984;-65
2021/12/23 12:56:49;;;;;;;;;;;;;;;;;;4374800;32;19969;-65
2021/12/23 12:59:16;;;;;;;;;;;;;;;;;;4370718;32;19983;-65
2021/12/23 13:01:44;;;;;;;;;;;;;;;;;;4373729;32;19988;-65
2021/12/23 13:04:28;;;;;;;;;;;;;;;;;;4376808;32;20018;-63
2021/12/23 13:06:55;;;;;;;;;;;;;;;;;;4377650;32;20392;-64
2021/12/23 13:09:23;;;;;;;;;;;;;;;;;;4372158;32;20061;-63
2021/12/23 13:11:50;;;;;;;;;;;;;;;;;;4366374;32;20320;-65
2021/12/23 13:14:20;;;;;;;;;;;;;;;;;;4367404;32;20079;-69
2021/12/23 13:16:51;;;;;;;;;;;;;;;;;;4372668;32;19985;-65
2021/12/23 13:19:17;;;;;;;;;;;;;;;;;;4363157;32;19969;-64
2021/12/23 13:21:48;;;;;;;;;;;;;;;;;;4381835;32;19978;-64
2021/12/23 13:24:14;;;;;;;;;;;;;;;;;;4386345;32;20669;-66
2021/12/23 13:26:41;;;;;;;;;;;;;;;;;;4370910;32;20037;-65
2021/12/23 13:29:09;;;;;;;;;;;;;;;;;;4383562;32;19974;-66
2021/12/23 13:31:36;;;;;;;;;;;;;;;;;;4354828;32;19973;-71
2021/12/23 13:34:08;;;;;;;;;;;;;;;;;;4365354;32;19998;-70
2021/12/23 13:36:38;;;;;;;;;;;;;;;;;;4367911;32;19989;-70
2021/12/23 13:39:12;;;;;;;;;;;;;;;;;;4342478;32;20058;-68
2021/12/23 13:41:42;;;;;;;;;;;;;;;;;;4372984;32;20493;-67
2021/12/23 13:44:15;;;;;;;;;;;;;;;;;;4361825;32;19974;-67
2021/12/23 13:46:42;;;;;;;;;;;;;;;;;;4374133;32;19997;-67
2021/12/23 13:49:09;;;;;;;;;;;;;;;;;;4377938;32;20058;-67
2021/12/23 13:51:36;;;;;;;;;;;;;;;;;;4384532;32;20059;-67
2021/12/23 13:54:13;;;;;;;;;;;;;;;;;;4363648;32;20073;-67
2021/12/23 13:56:41;;;;;;;;;;;;;;;;;;4376952;32;19985;-66
2021/12/23 13:59:20;;;;;;;;;;;;;;;;;;4370857;32;19990;-65
2021/12/23 14:01:56;;;;;;;;;;;;;;;;;;4339807;32;19998;-65
2021/12/23 14:04:30;;;;;;;;;;;;;;;;;;4377567;32;19972;-67
2021/12/23 14:06:57;;;;;;;;;;;;;;;;;;4353782;32;20078;-67
2021/12/23 14:09:34;;;;;;;;;;;;;;;;;;4353843;32;19981;-68
2021/12/23 14:14:57;;;;;;;;;;;;;;;;;;3809667;37;20322;-64
2021/12/23 14:17:32;;;;;;;;;;;;;;;;;;4373246;32;19989;-66
2021/12/23 14:25:50;;;;;;;;;;;;;;;;;;4377938;32;19992;-66
2021/12/23 14:28:18;;;;;;;;;;;;;;;;;;4367916;32;19981;-71
2021/12/23 14:31:05;;;;;;;;;;;;;;;;;;4372285;32;19986;-71
2021/12/23 14:33:41;;;;;;;;;;;;;;;;;;4376126;32;20056;-70
2021/12/23 14:36:09;;;;;;;;;;;;;;;;;;4373659;32;19985;-72
2021/12/23 14:38:38;;;;;;;;;;;;;;;;;;4358367;32;20009;-68
2021/12/23 14:41:04;;;;;;;;;;;;;;;;;;4374391;32;19978;-71
2021/12/23 14:43:53;;;;;;;;;;;;;;;;;;4384051;32;19974;-69
2021/12/23 14:46:24;;;;;;;;;;;;;;;;;;4376706;32;19992;-69
2021/12/23 14:51:23;;;;;;;;;;;;;;;;;;4369532;32;20007;-68
2021/12/23 14:54:06;;;;;;;;;;;;;;;;;;4383477;32;20086;-69
2021/12/23 14:56:33;;;;;;;;;;;;;;;;;;4359163;32;20087;-71
2021/12/23 14:59:07;;;;;;;;;;;;;;;;;;4358177;32;19978;-70
2021/12/23 15:01:37;;;;;;;;;;;;;;;;;;4364149;32;19996;-67
2021/12/23 15:04:17;;;;;;;;;;;;;;;;;;4363017;32;19997;-68
2021/12/23 15:07:00;;;;;;;;;;;;;;;;;;4367970;32;20377;-70
2021/12/23 15:09:28;;;;;;;;;;;;;;;;;;4359764;32;19986;-72
2021/12/23 15:12:14;;;;;;;;;;;;;;;;;;4367737;32;20440;-71
2021/12/23 15:14:47;;;;;;;;;;;;;;;;;;4394497;32;20074;-68
2021/12/23 15:17:18;;;;;;;;;;;;;;;;;;4387122;32;20483;-70
2021/12/23 15:19:55;;;;;;;;;;;;;;;;;;4361377;32;19998;-70
2021/12/23 15:22:23;;;;;;;;;;;;;;;;;;4372438;32;19981;-69
2021/12/23 15:25:06;;;;;;;;;;;;;;;;;;4368332;32;20504;-71
2021/12/23 15:27:34;;;;;;;;;;;;;;;;;;4383859;32;20038;-71
2021/12/23 15:30:03;;;;;;;;;;;;;;;;;;4362719;32;20359;-69
2021/12/23 15:32:31;;;;;;;;;;;;;;;;;;4365708;32;19965;-72
2021/12/23 15:35:00;;;;;;;;;;;;;;;;;;4375880;32;20017;-73
2021/12/23 15:37:28;;;;;;;;;;;;;;;;;;4366931;32;20351;-72
2021/12/23 15:39:55;;;;;;;;;;;;;;;;;;4367314;32;19977;-71
2021/12/23 15:42:22;;;;;;;;;;;;;;;;;;4367140;32;19997;-71
2021/12/23 15:44:49;;;;;;;;;;;;;;;;;;4366459;32;19996;-72
2021/12/23 15:47:16;;;;;;;;;;;;;;;;;;4379798;32;20031;-71
2021/12/23 15:49:43;;;;;;;;;;;;;;;;;;4354841;32;20360;-72
2021/12/23 15:52:10;;;;;;;;;;;;;;;;;;4379644;32;20005;-72
2021/12/23 15:54:37;;;;;;;;;;;;;;;;;;4367078;32;20043;-71
2021/12/23 15:57:04;;;;;;;;;;;;;;;;;;4398863;32;20551;-71
2021/12/23 15:59:31;;;;;;;;;;;;;;;;;;4362139;32;20376;-71
2021/12/23 16:01:57;;;;;;;;;;;;;;;;;;4386927;32;19978;-71
2021/12/23 16:04:26;;;;;;;;;;;;;;;;;;4388216;32;19972;-73
2021/12/23 16:09:39;;;;;;;;;;;;;;;;;;4381583;32;20070;-72
2021/12/23 16:12:05;;;;;;;;;;;;;;;;;;4378968;32;20025;-71
2021/12/23 16:14:32;;;;;;;;;;;;;;;;;;4366467;32;20041;-70
2021/12/23 16:16:58;;;;;;;;;;;;;;;;;;4366865;32;20062;-71
2021/12/23 16:19:25;;;;;;;;;;;;;;;;;;4366887;32;19989;-71
2021/12/23 16:21:51;;;;;;;;;;;;;;;;;;4366707;32;19982;-71
2021/12/23 16:24:18;;;;;;;;;;;;;;;;;;4366873;32;20042;-72
2021/12/23 16:26:44;;;;;;;;;;;;;;;;;;4378924;32;20420;-71
2021/12/23 16:29:11;;;;;;;;;;;;;;;;;;4379035;32;19969;-72
2021/12/23 16:31:38;;;;;;;;;;;;;;;;;;4353931;32;20448;-72
2021/12/23 16:34:05;;;;;;;;;;;;;;;;;;4392992;32;19985;-71
2021/12/23 16:36:31;;;;;;;;;;;;;;;;;;4377989;32;20433;-71
2021/12/23 16:38:58;;;;;;;;;;;;;;;;;;4366416;32;19988;-71
2021/12/23 16:41:25;;;;;;;;;;;;;;;;;;4378838;32;20134;-71
2021/12/23 16:43:52;;;;;;;;;;;;;;;;;;4353762;32;19977;-71
2021/12/23 16:46:19;;;;;;;;;;;;;;;;;;4378435;32;19974;-71
2021/12/23 16:48:45;;;;;;;;;;;;;;;;;;4378628;32;20001;-71
2021/12/23 16:51:25;;;;;;;;;;;;;;;;;;3857660;37;19965;-70
2021/12/23 16:53:52;;;;;;;;;;;;;;;;;;4394416;32;19966;-71
2021/12/23 16:57:33;;;;;;;;;;;;;;;;;;4393312;32;19992;-71
2021/12/23 16:59:05;;;;;;;;;;;;;;;;;;4406299;32;20073;-70
2021/12/23 17:01:31;;;;;;;;;;;;;;;;;;4406301;32;19977;-70
2021/12/23 17:03:58;;;;;;;;;;;;;;;;;;4406657;32;20335;-70
2021/12/23 17:06:24;;;;;;;;;;;;;;;;;;4380558;32;19981;-72
2021/12/23 17:08:53;;;;;;;;;;;;;;;;;;4419815;32;19985;-71
2021/12/23 17:11:20;;;;;;;;;;;;;;;;;;4392817;32;20492;-71
2021/12/23 17:13:49;;;;;;;;;;;;;;;;;;4394182;32;19980;-71
2021/12/23 17:16:16;;;;;;;;;;;;;;;;;;4393884;32;20049;-72
2021/12/23 17:18:54;;;;;;;;;;;;;;;;;;4390361;32;20069;-70
2021/12/23 17:24:07;;;;;;;;;;;;;;;;;;4403428;32;19978;-72
2021/12/23 17:26:33;;;;;;;;;;;;;;;;;;4403316;32;19993;-71
2021/12/23 17:29:00;;;;;;;;;;;;;;;;;;4403140;32;20332;-71
2021/12/23 17:31:26;;;;;;;;;;;;;;;;;;4403015;32;19991;-71
2021/12/23 17:33:53;;;;;;;;;;;;;;;;;;4404497;32;19996;-71
2021/12/23 17:36:19;;;;;;;;;;;;;;;;;;4403451;32;20082;-71
2021/12/23 17:38:47;;;;;;;;;;;;;;;;;;4377250;32;20387;-72
2021/12/23 17:41:15;;;;;;;;;;;;;;;;;;4378110;32;20072;-70
2021/12/23 17:43:42;;;;;;;;;;;;;;;;;;4377743;32;20384;-72
2021/12/23 17:46:08;;;;;;;;;;;;;;;;;;4402640;32;19981;-72
2021/12/23 17:48:35;;;;;;;;;;;;;;;;;;4404043;32;19989;-71
2021/12/23 17:51:01;;;;;;;;;;;;;;;;;;4390064;32;20452;-71
2021/12/23 17:53:29;;;;;;;;;;;;;;;;;;4402978;32;19976;-71
2021/12/23 17:55:55;;;;;;;;;;;;;;;;;;4404534;32;19977;-70
2021/12/23 17:58:22;;;;;;;;;;;;;;;;;;4404891;32;19974;-72
2021/12/23 18:00:50;;;;;;;;;;;;;;;;;;4402878;32;20415;-70
2021/12/23 18:03:17;;;;;;;;;;;;;;;;;;4380155;32;20415;-72
2021/12/23 18:05:46;;;;;;;;;;;;;;;;;;4394865;32;19977;-71
2021/12/23 18:08:14;;;;;;;;;;;;;;;;;;4392983;32;19986;-71
2021/12/23 18:10:42;;;;;;;;;;;;;;;;;;4393295;32;19977;-72
2021/12/23 18:13:09;;;;;;;;;;;;;;;;;;4369352;32;20015;-73
2021/12/23 18:15:38;;;;;;;;;;;;;;;;;;4394090;32;20063;-73
2021/12/23 18:18:05;;;;;;;;;;;;;;;;;;4368899;32;19981;-71
2021/12/23 18:20:35;;;;;;;;;;;;;;;;;;4394622;32;19984;-70
2021/12/23 18:23:02;;;;;;;;;;;;;;;;;;4380923;32;19969;-71
2021/12/23 18:25:29;;;;;;;;;;;;;;;;;;4392835;32;19977;-71
2021/12/23 18:27:55;;;;;;;;;;;;;;;;;;4369460;32;20049;-71
2021/12/23 18:30:23;;;;;;;;;;;;;;;;;;4380472;32;19995;-71
2021/12/23 18:32:49;;;;;;;;;;;;;;;;;;4394738;32;19989;-71
2021/12/23 18:35:23;;;;;;;;;;;;;;;;;;4369455;32;19974;-71